Time;durP1;ratioP1;P1;durP2;ratioP2;P2;SDS_P1;SDS_P2;PMS_P1;PMS_P2;Temp;Humidity;BMP_temperature;BMP_pressure;BME280_temperature;BME280_humidity;BME280_pressure;Samples;Min_cycle;Max_cycle;Signal;HPM_P1;HPM_P2
2020/02/07 00:01:48;;;;;;;3.80;3.40;;;;;;;19.05;37.90;101944.53;;;;-56
2020/02/07 00:04:48;;;;;;;3.79;3.40;;;;;;;19.03;37.92;101943.22;;;;-56
2020/02/07 00:07:48;;;;;;;4.30;3.37;;;;;;;19.02;37.87;101944.10;;;;-56
2020/02/07 00:10:48;;;;;;;3.75;3.44;;;;;;;19.00;37.96;101940.27;;;;-56
2020/02/07 00:13:48;;;;;;;3.46;3.16;;;;;;;18.99;37.95;101940.19;;;;-56
2020/02/07 00:16:48;;;;;;;3.89;3.50;;;;;;;18.97;37.94;101935.25;;;;-56
2020/02/07 00:19:48;;;;;;;3.99;3.59;;;;;;;18.95;37.93;101929.21;;;;-56
2020/02/07 00:22:48;;;;;;;3.79;3.39;;;;;;;18.93;37.95;101927.23;;;;-56
2020/02/07 00:25:48;;;;;;;3.41;3.07;;;;;;;18.92;37.90;101923.56;;;;-56
2020/02/07 00:29:48;;;;;;;3.83;3.41;;;;;;;18.90;37.95;101922.16;;;;-56
2020/02/07 00:32:48;;;;;;;4.43;3.48;;;;;;;18.88;37.95;101916.16;;;;-56
2020/02/07 00:35:48;;;;;;;3.99;3.54;;;;;;;18.88;37.96;101920.39;;;;-56
2020/02/07 00:38:48;;;;;;;3.87;3.47;;;;;;;18.86;37.94;101921.03;;;;-56
2020/02/07 00:41:48;;;;;;;3.94;3.54;;;;;;;18.84;37.99;101917.44;;;;-56
2020/02/07 00:44:48;;;;;;;3.75;3.37;;;;;;;18.82;37.94;101919.52;;;;-56
2020/02/07 00:47:47;;;;;;;3.63;3.33;;;;;;;18.80;37.98;101916.92;;;;-56
2020/02/07 00:50:48;;;;;;;3.82;3.42;;;;;;;18.79;38.01;101912.22;;;;-56
2020/02/07 00:53:48;;;;;;;3.89;3.49;;;;;;;18.78;37.96;101909.36;;;;-56
2020/02/07 00:56:48;;;;;;;4.15;3.45;;;;;;;18.77;37.91;101910.19;;;;-56
2020/02/07 00:59:48;;;;;;;3.85;3.44;;;;;;;18.75;37.96;101900.28;;;;-56
2020/02/07 01:02:48;;;;;;;3.94;3.54;;;;;;;18.74;37.96;101904.84;;;;-56
2020/02/07 01:05:48;;;;;;;3.57;3.23;;;;;;;18.74;38.00;101904.37;;;;-56
2020/02/07 01:08:47;;;;;;;3.71;3.41;;;;;;;18.72;38.02;101903.30;;;;-56
2020/02/07 01:11:48;;;;;;;3.60;3.29;;;;;;;18.71;37.99;101893.56;;;;-56
2020/02/07 01:14:47;;;;;;;3.41;3.11;;;;;;;18.69;37.99;101890.77;;;;-56
2020/02/07 01:17:48;;;;;;;3.69;3.37;;;;;;;18.69;37.96;101886.73;;;;-56
2020/02/07 01:21:48;;;;;;;3.47;3.17;;;;;;;18.67;38.01;101884.64;;;;-56
2020/02/07 01:24:48;;;;;;;3.67;3.31;;;;;;;18.66;37.96;101884.53;;;;-56
2020/02/07 01:27:55;;;;;;;3.96;3.39;;;;;;;18.65;37.99;101881.84;;;;-56
2020/02/07 01:30:50;;;;;;;3.53;3.19;;;;;;;18.64;38.02;101884.94;;;;-56
2020/02/07 01:33:52;;;;;;;3.45;3.15;;;;;;;18.62;37.98;101878.22;;;;-56
2020/02/07 01:36:48;;;;;;;3.57;3.27;;;;;;;18.61;37.99;101874.63;;;;-56
2020/02/07 01:39:48;;;;;;;3.39;3.09;;;;;;;18.60;38.04;101874.91;;;;-56
2020/02/07 01:42:48;;;;;;;3.35;3.05;;;;;;;18.60;37.98;101879.29;;;;-56
2020/02/07 01:45:48;;;;;;;3.33;3.03;;;;;;;18.58;37.98;101877.53;;;;-56
2020/02/07 01:55:52;;;;;;;3.62;3.17;;;;;;;18.55;38.05;101868.17;;;;-56
2020/02/07 01:59:11;;;;;;;3.64;3.11;;;;;;;18.54;38.02;101869.92;;;;-56
2020/02/07 02:01:59;;;;;;;3.27;2.97;;;;;;;18.53;37.92;101865.58;;;;-56
2020/02/07 02:05:51;;;;;;;3.33;3.03;;;;;;;18.50;37.99;101864.08;;;;-55
2020/02/07 02:08:48;;;;;;;3.35;3.05;;;;;;;18.51;37.99;101858.33;;;;-55
2020/02/07 02:12:48;;;;;;;3.52;3.03;;;;;;;18.48;38.00;101858.25;;;;-56
2020/02/07 02:16:48;;;;;;;4.11;2.91;;;;;;;18.48;38.03;101857.45;;;;-56
2020/02/07 02:19:48;;;;;;;3.09;2.79;;;;;;;18.46;38.03;101855.80;;;;-56
2020/02/07 02:22:48;;;;;;;3.48;3.09;;;;;;;18.44;38.03;101859.53;;;;-55
2020/02/07 02:25:48;;;;;;;3.29;2.99;;;;;;;18.43;38.08;101859.80;;;;-56
2020/02/07 02:28:48;;;;;;;3.15;2.85;;;;;;;18.43;38.05;101859.40;;;;-56
2020/02/07 02:31:47;;;;;;;3.34;3.04;;;;;;;18.42;38.08;101864.02;;;;-56
2020/02/07 02:34:48;;;;;;;3.24;2.91;;;;;;;18.42;38.03;101864.23;;;;-56
2020/02/07 02:37:48;;;;;;;3.19;2.90;;;;;;;18.41;38.07;101852.72;;;;-56
2020/02/07 02:40:48;;;;;;;3.03;2.73;;;;;;;18.39;38.05;101850.34;;;;-56
2020/02/07 02:43:48;;;;;;;3.36;3.06;;;;;;;18.38;38.00;101852.61;;;;-55
2020/02/07 02:46:48;;;;;;;3.45;3.05;;;;;;;18.38;38.03;101851.16;;;;-55
2020/02/07 02:49:48;;;;;;;3.45;3.07;;;;;;;18.36;38.09;101853.81;;;;-56
2020/02/07 02:52:48;;;;;;;3.54;2.85;;;;;;;18.35;38.06;101851.95;;;;-56
2020/02/07 02:55:48;;;;;;;3.10;2.80;;;;;;;18.35;38.04;101855.97;;;;-56
2020/02/07 02:58:48;;;;;;;3.09;2.81;;;;;;;18.33;38.07;101860.02;;;;-56
2020/02/07 03:01:48;;;;;;;3.15;2.79;;;;;;;18.33;38.05;101860.36;;;;-56
2020/02/07 03:04:48;;;;;;;2.95;2.75;;;;;;;18.33;38.07;101865.19;;;;-55
2020/02/07 03:07:48;;;;;;;3.17;2.81;;;;;;;18.31;38.13;101862.54;;;;-56
2020/02/07 03:10:48;;;;;;;4.41;2.77;;;;;;;18.30;38.06;101862.75;;;;-56
2020/02/07 03:13:47;;;;;;;3.19;2.87;;;;;;;18.29;38.10;101862.28;;;;-56
2020/02/07 03:16:47;;;;;;;3.24;2.94;;;;;;;18.29;38.09;101863.06;;;;-56
2020/02/07 03:19:48;;;;;;;3.09;2.79;;;;;;;18.27;38.04;101869.50;;;;-56
2020/02/07 03:22:48;;;;;;;3.45;2.87;;;;;;;18.26;38.02;101872.05;;;;-55
2020/02/07 03:25:48;;;;;;;3.33;3.03;;;;;;;18.26;38.07;101875.11;;;;-56
2020/02/07 03:28:48;;;;;;;3.06;2.79;;;;;;;18.25;38.07;101878.16;;;;-56
2020/02/07 03:31:48;;;;;;;3.31;3.01;;;;;;;18.25;38.05;101877.38;;;;-55
2020/02/07 03:34:47;;;;;;;3.16;2.86;;;;;;;18.23;38.03;101879.77;;;;-55
2020/02/07 03:37:48;;;;;;;3.17;2.85;;;;;;;18.22;38.01;101878.52;;;;-56
2020/02/07 03:40:48;;;;;;;3.20;2.89;;;;;;;18.21;38.08;101885.37;;;;-56
2020/02/07 03:43:48;;;;;;;3.20;2.83;;;;;;;18.20;38.00;101885.06;;;;-55
2020/02/07 03:46:48;;;;;;;3.31;2.85;;;;;;;18.19;38.02;101889.17;;;;-56
2020/02/07 03:49:48;;;;;;;3.08;2.79;;;;;;;18.19;38.02;101891.35;;;;-55
2020/02/07 03:52:47;;;;;;;3.11;2.65;;;;;;;18.17;38.07;101884.35;;;;-56
2020/02/07 03:55:48;;;;;;;2.93;2.70;;;;;;;18.17;38.10;101888.92;;;;-56
2020/02/07 03:58:47;;;;;;;3.16;2.86;;;;;;;18.16;38.00;101890.61;;;;-56
2020/02/07 04:01:48;;;;;;;3.35;3.02;;;;;;;18.14;38.02;101890.41;;;;-56
2020/02/07 04:04:48;;;;;;;3.25;2.95;;;;;;;18.13;38.04;101893.20;;;;-55
2020/02/07 04:07:59;;;;;;;3.11;2.81;;;;;;;18.12;38.03;101887.09;;;;-56
2020/02/07 04:10:56;;;;;;;3.15;2.86;;;;;;;18.12;38.05;101876.39;;;;-56
2020/02/07 04:13:52;;;;;;;3.17;2.77;;;;;;;18.11;38.05;101873.30;;;;-56
2020/02/07 04:16:48;;;;;;;3.25;2.95;;;;;;;18.10;38.07;101876.77;;;;-55
2020/02/07 04:19:48;;;;;;;3.45;2.96;;;;;;;18.09;38.09;101880.76;;;;-56
2020/02/07 04:22:48;;;;;;;3.23;2.93;;;;;;;18.08;38.09;101874.76;;;;-55
2020/02/07 04:25:48;;;;;;;3.06;2.79;;;;;;;18.07;38.03;101871.02;;;;-55
2020/02/07 04:28:48;;;;;;;3.83;3.15;;;;;;;18.07;37.98;101875.69;;;;-56
2020/02/07 04:31:48;;;;;;;3.55;2.99;;;;;;;18.05;38.02;101870.47;;;;-56
2020/02/07 04:34:47;;;;;;;3.17;2.87;;;;;;;18.04;38.04;101864.63;;;;-55
2020/02/07 04:37:48;;;;;;;3.26;2.96;;;;;;;18.04;38.02;101856.64;;;;-56
2020/02/07 04:40:47;;;;;;;3.13;2.83;;;;;;;18.03;37.97;101861.08;;;;-56
2020/02/07 04:43:48;;;;;;;3.11;2.81;;;;;;;18.04;38.01;101857.27;;;;-55
2020/02/07 04:46:48;;;;;;;3.28;2.98;;;;;;;18.04;38.07;101856.94;;;;-55
2020/02/07 04:49:48;;;;;;;3.20;2.90;;;;;;;18.06;38.16;101854.78;;;;-55
2020/02/07 04:52:48;;;;;;;3.13;2.83;;;;;;;18.07;38.14;101850.00;;;;-55
2020/02/07 04:55:47;;;;;;;3.11;2.85;;;;;;;18.08;38.10;101845.19;;;;-55
2020/02/07 04:59:05;;;;;;;3.05;2.79;;;;;;;18.11;38.03;101842.78;;;;-56
2020/02/07 05:02:13;;;;;;;3.63;2.94;;;;;;;18.13;38.21;101833.40;;;;-56
2020/02/07 05:05:15;;;;;;;3.38;2.96;;;;;;;18.16;38.24;101832.03;;;;-55
2020/02/07 05:07:58;;;;;;;2.84;2.64;;;;;;;18.19;38.29;101834.44;;;;-56
2020/02/07 05:14:08;;;;;;;3.05;2.75;;;;;;;18.27;38.21;101832.38;;;;-56
2020/02/07 05:16:58;;;;;;;2.91;2.61;;;;;;;18.31;38.27;101826.25;;;;-56
2020/02/07 05:19:47;;;;;;;2.89;2.69;;;;;;;18.36;38.22;101827.66;;;;-55
2020/02/07 05:22:47;;;;;;;3.08;2.78;;;;;;;18.39;38.32;101820.98;;;;-56
2020/02/07 05:25:48;;;;;;;3.08;2.81;;;;;;;18.44;38.30;101820.81;;;;-56
2020/02/07 05:28:48;;;;;;;3.36;3.05;;;;;;;18.48;38.33;101814.45;;;;-56
2020/02/07 05:31:48;;;;;;;9.70;6.73;;;;;;;18.16;34.13;101814.72;;;;-53
2020/02/07 05:34:48;;;;;;;16.30;8.53;;;;;;;17.96;33.14;101817.45;;;;-60
2020/02/07 05:37:48;;;;;;;11.28;7.81;;;;;;;18.01;33.74;101808.94;;;;-55
2020/02/07 05:40:48;;;;;;;7.69;6.71;;;;;;;18.13;34.90;101815.67;;;;-60
2020/02/07 05:43:48;;;;;;;9.15;6.29;;;;;;;18.20;35.57;101820.08;;;;-59
2020/02/07 05:46:48;;;;;;;7.34;5.24;;;;;;;18.25;36.06;101811.83;;;;-59
2020/02/07 05:49:48;;;;;;;5.92;4.75;;;;;;;18.31;36.23;101816.05;;;;-60
2020/02/07 05:52:48;;;;;;;5.12;4.37;;;;;;;18.35;36.53;101811.09;;;;-60
2020/02/07 05:55:48;;;;;;;5.58;4.47;;;;;;;18.39;36.50;101812.66;;;;-59
2020/02/07 05:58:47;;;;;;;5.35;4.38;;;;;;;18.42;36.77;101811.38;;;;-59
2020/02/07 06:01:48;;;;;;;5.12;4.06;;;;;;;18.44;36.72;101802.24;;;;-59
2020/02/07 06:04:47;;;;;;;4.30;3.86;;;;;;;18.47;36.88;101806.04;;;;-59
2020/02/07 06:07:48;;;;;;;4.85;4.07;;;;;;;18.50;36.77;101811.16;;;;-58
2020/02/07 06:10:48;;;;;;;5.95;3.86;;;;;;;18.53;36.92;101809.63;;;;-59
2020/02/07 06:13:48;;;;;;;4.42;3.85;;;;;;;18.54;36.82;101809.66;;;;-59
2020/02/07 06:16:48;;;;;;;4.27;3.67;;;;;;;18.55;36.80;101809.55;;;;-60
2020/02/07 06:19:47;;;;;;;5.27;3.83;;;;;;;18.56;36.81;101808.06;;;;-58
2020/02/07 06:22:47;;;;;;;5.32;3.78;;;;;;;18.57;36.89;101812.93;;;;-59
2020/02/07 06:25:48;;;;;;;4.75;3.83;;;;;;;18.58;36.84;101812.33;;;;-59
2020/02/07 06:28:51;;;;;;;4.01;3.58;;;;;;;18.58;36.79;101818.12;;;;-60
2020/02/07 06:31:48;;;;;;;4.09;3.67;;;;;;;18.59;36.92;101815.14;;;;-59
2020/02/07 06:34:48;;;;;;;4.14;3.60;;;;;;;18.59;36.92;101819.77;;;;-59
2020/02/07 06:37:48;;;;;;;4.04;3.50;;;;;;;18.59;36.98;101823.27;;;;-58
2020/02/07 06:40:48;;;;;;;3.92;3.45;;;;;;;18.58;36.98;101819.25;;;;-59
2020/02/07 06:43:49;;;;;;;3.93;3.48;;;;;;;18.58;37.05;101824.71;;;;-59
2020/02/07 06:46:48;;;;;;;4.33;3.47;;;;;;;18.58;36.95;101826.16;;;;-59
2020/02/07 06:49:47;;;;;;;5.28;3.58;;;;;;;18.58;37.04;101821.87;;;;-56
2020/02/07 06:52:48;;;;;;;4.89;3.83;;;;;;;18.59;37.37;101820.09;;;;-58
2020/02/07 06:55:48;;;;;;;3.73;3.43;;;;;;;18.60;37.56;101823.69;;;;-60
2020/02/07 06:58:48;;;;;;;3.89;3.43;;;;;;;18.60;37.38;101825.70;;;;-60
2020/02/07 07:01:47;;;;;;;4.29;3.36;;;;;;;18.60;37.30;101826.13;;;;-60
2020/02/07 07:04:48;;;;;;;3.96;3.56;;;;;;;18.60;37.29;101825.47;;;;-60
2020/02/07 07:07:48;;;;;;;3.89;3.49;;;;;;;18.59;37.21;101822.30;;;;-60
2020/02/07 07:10:48;;;;;;;3.78;3.39;;;;;;;18.60;37.24;101826.47;;;;-60
2020/02/07 07:13:48;;;;;;;3.59;3.29;;;;;;;18.59;37.20;101830.80;;;;-60
2020/02/07 07:16:48;;;;;;;3.82;3.40;;;;;;;18.59;37.12;101829.15;;;;-61
2020/02/07 07:19:48;;;;;;;4.32;3.39;;;;;;;18.58;37.20;101830.35;;;;-61
2020/02/07 07:22:48;;;;;;;5.21;3.79;;;;;;;18.57;37.55;101830.22;;;;-56
2020/02/07 07:25:48;;;;;;;4.27;3.81;;;;;;;18.56;37.32;101830.77;;;;-57
2020/02/07 07:28:47;;;;;;;3.97;3.57;;;;;;;18.58;37.26;101831.62;;;;-56
2020/02/07 07:31:48;;;;;;;4.54;3.75;;;;;;;18.59;37.25;101832.03;;;;-53
2020/02/07 07:34:48;;;;;;;4.63;3.65;;;;;;;18.61;37.33;101831.22;;;;-55
2020/02/07 07:37:48;;;;;;;3.91;3.49;;;;;;;18.64;37.15;101828.16;;;;-58
2020/02/07 07:40:48;;;;;;;5.34;3.81;;;;;;;18.68;37.25;101825.98;;;;-56
2020/02/07 07:43:48;;;;;;;4.59;3.92;;;;;;;18.71;37.09;101820.67;;;;-56
2020/02/07 07:46:47;;;;;;;4.29;3.88;;;;;;;18.75;36.74;101822.39;;;;-58
2020/02/07 07:49:48;;;;;;;4.83;3.68;;;;;;;18.80;36.75;101824.53;;;;-53
2020/02/07 07:52:48;;;;;;;4.83;3.85;;;;;;;18.82;36.62;101823.27;;;;-54
2020/02/07 07:55:48;;;;;;;5.27;4.07;;;;;;;18.86;36.13;101824.11;;;;-56
2020/02/07 07:58:48;;;;;;;5.45;3.97;;;;;;;18.89;36.09;101818.95;;;;-56
2020/02/07 08:01:48;;;;;;;5.15;3.83;;;;;;;18.93;35.98;101819.45;;;;-54
2020/02/07 08:04:48;;;;;;;4.37;3.92;;;;;;;18.96;36.31;101824.87;;;;-62
2020/02/07 08:07:48;;;;;;;6.02;4.11;;;;;;;18.99;36.01;101824.22;;;;-54
2020/02/07 08:10:48;;;;;;;4.54;3.93;;;;;;;19.02;35.75;101831.79;;;;-51
2020/02/07 08:13:47;;;;;;;5.27;4.07;;;;;;;19.05;35.49;101836.18;;;;-54
2020/02/07 08:16:48;;;;;;;5.33;4.21;;;;;;;19.08;35.66;101837.22;;;;-53
2020/02/07 08:19:48;;;;;;;4.87;3.95;;;;;;;19.11;35.77;101835.60;;;;-52
2020/02/07 08:22:48;;;;;;;5.00;4.15;;;;;;;19.15;35.63;101835.35;;;;-51
2020/02/07 08:25:48;;;;;;;5.27;3.88;;;;;;;19.18;35.78;101830.70;;;;-55
2020/02/07 08:28:48;;;;;;;4.04;3.64;;;;;;;19.21;35.79;101837.88;;;;-55
2020/02/07 08:31:48;;;;;;;3.94;3.40;;;;;;;19.24;36.20;101837.52;;;;-54
2020/02/07 08:34:47;;;;;;;3.59;3.29;;;;;;;19.25;36.23;101832.97;;;;-55
2020/02/07 08:37:47;;;;;;;5.71;3.57;;;;;;;19.29;36.47;101827.82;;;;-52
2020/02/07 08:40:48;;;;;;;3.87;3.24;;;;;;;19.32;36.79;101840.37;;;;-52
2020/02/07 08:43:48;;;;;;;4.03;3.34;;;;;;;19.37;36.74;101824.73;;;;-52
2020/02/07 08:46:48;;;;;;;5.78;3.34;;;;;;;19.45;36.96;101821.52;;;;-52
2020/02/07 08:49:48;;;;;;;8.15;3.49;;;;;;;19.45;36.92;101818.39;;;;-52
2020/02/07 08:52:48;;;;;;;3.79;3.39;;;;;;;19.45;36.58;101815.33;;;;-52
2020/02/07 08:55:47;;;;;;;3.76;3.13;;;;;;;19.47;36.27;101814.39;;;;-45
2020/02/07 08:58:47;;;;;;;3.88;3.21;;;;;;;19.50;36.80;101811.08;;;;-47
2020/02/07 09:01:47;;;;;;;4.05;3.34;;;;;;;19.55;36.94;101815.31;;;;-50
2020/02/07 09:04:48;;;;;;;7.07;3.30;;;;;;;19.55;37.05;101813.92;;;;-50
2020/02/07 09:07:48;;;;;;;3.95;3.36;;;;;;;19.59;37.19;101810.33;;;;-46
2020/02/07 09:11:37;;;;;;;3.59;2.97;;;;;;;19.62;37.27;101806.73;;;;-52
2020/02/07 09:17:54;;;;;;;3.90;3.06;;;;;;;19.65;37.28;101800.80;;;;-53
2020/02/07 09:21:00;;;;;;;4.53;3.02;;;;;;;19.68;37.43;101800.98;;;;-51
2020/02/07 09:23:47;;;;;;;3.19;2.89;;;;;;;19.69;37.33;101800.78;;;;-52
2020/02/07 09:26:48;;;;;;;3.95;3.02;;;;;;;19.70;37.32;101799.05;;;;-47
2020/02/07 09:29:48;;;;;;;3.45;2.84;;;;;;;19.72;37.55;101792.03;;;;-53
2020/02/07 09:32:48;;;;;;;3.41;2.92;;;;;;;19.72;37.24;101793.54;;;;-51
2020/02/07 09:35:48;;;;;;;3.97;2.89;;;;;;;19.72;37.60;101789.06;;;;-56
2020/02/07 09:38:48;;;;;;;4.91;2.90;;;;;;;19.73;37.27;101786.52;;;;-56
2020/02/07 09:41:48;;;;;;;2.91;2.63;;;;;;;19.72;37.19;101786.88;;;;-56
2020/02/07 09:44:47;;;;;;;3.28;2.72;;;;;;;19.72;37.09;101786.16;;;;-56
2020/02/07 09:47:47;;;;;;;3.05;2.69;;;;;;;19.71;37.16;101785.09;;;;-56
2020/02/07 09:50:47;;;;;;;4.93;2.71;;;;;;;19.70;37.04;101787.59;;;;-56
2020/02/07 09:53:48;;;;;;;2.83;2.58;;;;;;;19.70;36.98;101787.09;;;;-56
2020/02/07 09:56:48;;;;;;;2.92;2.65;;;;;;;19.70;37.07;101782.84;;;;-56
2020/02/07 09:59:48;;;;;;;3.43;2.69;;;;;;;19.71;37.01;101784.14;;;;-56
2020/02/07 10:02:48;;;;;;;3.31;2.71;;;;;;;19.70;36.96;101773.02;;;;-56
2020/02/07 10:05:48;;;;;;;3.15;2.61;;;;;;;19.70;37.03;101773.52;;;;-56
2020/02/07 10:08:48;;;;;;;2.97;2.67;;;;;;;19.70;36.98;101777.70;;;;-56
2020/02/07 10:11:47;;;;;;;3.16;2.75;;;;;;;19.70;36.95;101774.24;;;;-56
2020/02/07 10:14:48;;;;;;;2.94;2.61;;;;;;;19.70;36.90;101772.51;;;;-56
2020/02/07 10:17:48;;;;;;;3.03;2.73;;;;;;;19.70;37.03;101766.76;;;;-56
2020/02/07 10:20:48;;;;;;;2.91;2.65;;;;;;;19.70;36.96;101768.38;;;;-56
2020/02/07 10:23:47;;;;;;;3.09;2.62;;;;;;;19.71;37.09;101764.81;;;;-46
2020/02/07 10:26:47;;;;;;;4.51;2.71;;;;;;;19.71;36.80;101769.17;;;;-48
2020/02/07 10:29:47;;;;;;;4.13;3.25;;;;;;;19.71;36.47;101770.73;;;;-49
2020/02/07 10:32:48;;;;;;;3.43;3.13;;;;;;;19.71;36.12;101769.00;;;;-50
2020/02/07 10:35:48;;;;;;;3.83;3.32;;;;;;;19.70;35.90;101767.98;;;;-51
2020/02/07 10:38:48;;;;;;;3.57;3.27;;;;;;;19.71;35.83;101763.69;;;;-49
2020/02/07 10:41:48;;;;;;;4.01;3.30;;;;;;;19.73;35.88;101755.16;;;;-51
2020/02/07 10:44:47;;;;;;;3.41;3.11;;;;;;;19.73;35.56;101747.56;;;;-47
2020/02/07 10:47:48;;;;;;;4.52;3.17;;;;;;;19.73;35.60;101742.70;;;;-47
2020/02/07 10:50:48;;;;;;;3.39;3.00;;;;;;;19.74;35.73;101733.88;;;;-48
2020/02/07 10:53:47;;;;;;;3.84;3.07;;;;;;;19.75;35.16;101732.16;;;;-47
2020/02/07 10:56:48;;;;;;;4.36;3.07;;;;;;;19.77;35.78;101728.59;;;;-55
2020/02/07 10:59:47;;;;;;;3.17;2.70;;;;;;;19.77;35.93;101722.73;;;;-56
2020/02/07 11:02:48;;;;;;;3.47;2.80;;;;;;;19.78;36.08;101720.18;;;;-55
2020/02/07 11:05:47;;;;;;;3.39;2.65;;;;;;;19.78;36.16;101719.68;;;;-55
2020/02/07 11:08:47;;;;;;;2.94;2.67;;;;;;;19.78;36.17;101714.42;;;;-56
2020/02/07 11:11:47;;;;;;;3.02;2.57;;;;;;;19.78;36.24;101714.58;;;;-56
2020/02/07 11:14:48;;;;;;;3.04;2.74;;;;;;;19.79;36.30;101716.22;;;;-56
2020/02/07 11:17:47;;;;;;;2.69;2.49;;;;;;;19.79;36.41;101712.52;;;;-55
2020/02/07 11:20:48;;;;;;;2.84;2.59;;;;;;;19.79;36.28;101707.11;;;;-55
2020/02/07 11:23:47;;;;;;;3.53;2.59;;;;;;;19.81;36.42;101701.03;;;;-53
2020/02/07 11:26:48;;;;;;;2.69;2.44;;;;;;;19.83;36.37;101695.80;;;;-54
2020/02/07 11:29:47;;;;;;;4.52;2.60;;;;;;;19.84;36.39;101692.56;;;;-54
2020/02/07 11:33:03;;;;;;;3.35;2.58;;;;;;;19.84;36.42;101684.69;;;;-54
2020/02/07 11:36:08;;;;;;;3.01;2.51;;;;;;;19.84;36.45;101681.39;;;;-54
2020/02/07 11:38:57;;;;;;;2.87;2.42;;;;;;;19.85;36.38;101679.61;;;;-54
2020/02/07 11:43:03;;;;;;;3.39;2.59;;;;;;;19.84;36.49;101675.58;;;;-54
2020/02/07 11:49:19;;;;;;;3.15;2.42;;;;;;;19.86;36.52;101663.84;;;;-54
2020/02/07 11:58:28;;;;;;;2.69;2.48;;;;;;;19.87;36.49;101645.97;;;;-54
2020/02/07 12:01:06;;;;;;;2.73;2.44;;;;;;;19.88;36.49;101635.98;;;;-54
2020/02/07 12:04:03;;;;;;;2.57;2.37;;;;;;;19.89;36.45;101633.47;;;;-54
2020/02/07 12:07:32;;;;;;;2.53;2.29;;;;;;;19.88;36.60;101626.42;;;;-54
2020/02/07 12:10:04;;;;;;;3.66;2.64;;;;;;;19.89;36.53;101619.59;;;;-54
2020/02/07 12:13:06;;;;;;;2.91;2.45;;;;;;;19.89;36.45;101615.52;;;;-56
2020/02/07 12:19:54;;;;;;;3.91;2.59;;;;;;;19.90;36.48;101603.80;;;;-48
2020/02/07 12:23:54;;;;;;;4.21;3.32;;;;;;;19.89;35.59;101599.48;;;;-50
2020/02/07 12:27:08;;;;;;;3.59;3.29;;;;;;;19.90;35.85;101595.34;;;;-51
2020/02/07 12:34:01;;;;;;;5.60;3.16;;;;;;;19.94;35.87;101573.19;;;;-51
2020/02/07 12:42:29;;;;;;;3.50;2.52;;;;;;;20.00;36.60;101563.54;;;;-54
2020/02/07 12:48:58;;;;;;;4.59;2.45;;;;;;;20.06;36.69;101545.84;;;;-54
2020/02/07 12:52:06;;;;;;;3.17;2.62;;;;;;;20.05;36.68;101547.79;;;;-52
2020/02/07 12:58:28;;;;;;;4.34;3.04;;;;;;;20.06;35.67;101538.13;;;;-55
2020/02/07 13:00:58;;;;;;;6.55;3.08;;;;;;;20.09;36.03;101543.11;;;;-49
2020/02/07 13:03:59;;;;;;;4.09;2.71;;;;;;;20.10;36.02;101539.05;;;;-51
2020/02/07 13:07:07;;;;;;;6.92;2.54;;;;;;;20.14;36.25;101537.54;;;;-57
2020/02/07 13:14:09;;;;;;;6.65;2.57;;;;;;;20.16;36.27;101534.30;;;;-51
2020/02/07 13:17:01;;;;;;;2.82;2.46;;;;;;;20.17;36.52;101528.37;;;;-52
2020/02/07 13:19:56;;;;;;;2.94;2.45;;;;;;;20.19;36.50;101524.81;;;;-50
2020/02/07 13:33:37;;;;;;;2.45;2.25;;;;;;;20.25;36.55;101508.00;;;;-58
2020/02/07 13:40:53;;;;;;;2.59;2.31;;;;;;;20.27;36.89;101496.03;;;;-52
2020/02/07 13:43:56;;;;;;;2.78;2.32;;;;;;;20.28;36.85;101494.03;;;;-51
2020/02/07 13:47:36;;;;;;;3.09;2.64;;;;;;;20.29;36.94;101485.20;;;;-58
2020/02/07 13:54:18;;;;;;;3.02;2.32;;;;;;;20.29;36.66;101478.20;;;;-57
2020/02/07 13:57:05;;;;;;;2.63;2.13;;;;;;;20.29;36.63;101477.92;;;;-53
2020/02/07 13:59:54;;;;;;;5.85;2.43;;;;;;;20.28;36.65;101480.05;;;;-53
2020/02/07 14:07:14;;;;;;;2.37;2.17;;;;;;;20.24;36.65;101467.50;;;;-53
2020/02/07 14:12:55;;;;;;;2.45;2.23;;;;;;;20.22;36.54;101469.47;;;;-53
2020/02/07 14:20:09;;;;;;;2.39;2.13;;;;;;;20.19;36.58;101460.17;;;;-52
2020/02/07 14:22:55;;;;;;;2.75;2.21;;;;;;;20.18;36.62;101461.02;;;;-53
2020/02/07 14:25:55;;;;;;;2.39;2.03;;;;;;;20.16;36.66;101461.41;;;;-53
2020/02/07 14:28:55;;;;;;;2.50;2.15;;;;;;;20.16;36.64;101457.77;;;;-52
2020/02/07 14:32:04;;;;;;;2.35;2.15;;;;;;;20.15;36.66;101459.10;;;;-53
2020/02/07 14:34:59;;;;;;;2.62;2.19;;;;;;;20.14;36.63;101460.61;;;;-53
2020/02/07 14:41:32;;;;;;;2.42;2.19;;;;;;;20.14;36.61;101453.89;;;;-52
2020/02/07 14:47:55;;;;;;;5.69;2.19;;;;;;;20.15;36.62;101452.55;;;;-52
2020/02/07 14:50:57;;;;;;;2.70;2.29;;;;;;;20.16;36.71;101453.19;;;;-50
2020/02/07 14:54:03;;;;;;;2.71;2.31;;;;;;;20.17;36.74;101450.28;;;;-51
2020/02/07 14:57:12;;;;;;;2.91;2.13;;;;;;;20.18;36.92;101447.20;;;;-51
2020/02/07 15:00:08;;;;;;;2.48;2.28;;;;;;;20.18;36.80;101447.09;;;;-60
2020/02/07 15:05:57;;;;;;;2.39;2.18;;;;;;;20.22;36.85;101449.90;;;;-52
2020/02/07 15:12:09;;;;;;;2.40;2.20;;;;;;;20.24;37.01;101451.59;;;;-53
2020/02/07 15:25:05;;;;;;;2.31;2.10;;;;;;;20.28;37.24;101459.53;;;;-51
2020/02/07 15:37:55;;;;;;;2.37;2.00;;;;;;;20.24;36.77;101443.91;;;;-56
2020/02/07 15:41:04;;;;;;;2.17;1.97;;;;;;;20.24;36.79;101443.14;;;;-57
2020/02/07 15:52:59;;;;;;;2.24;2.04;;;;;;;20.23;36.81;101429.25;;;;-56
2020/02/07 16:01:38;;;;;;;2.12;1.91;;;;;;;20.21;36.83;101429.47;;;;-57
2020/02/07 16:10:10;;;;;;;2.09;1.90;;;;;;;20.21;36.84;101420.41;;;;-57
2020/02/07 16:12:58;;;;;;;2.20;1.98;;;;;;;20.20;36.83;101416.78;;;;-57
2020/02/07 16:33:11;;;;;;;1.92;1.81;;;;;;;20.22;37.35;101404.28;;;;-56
2020/02/07 16:36:01;;;;;;;2.30;2.00;;;;;;;20.24;37.43;101412.11;;;;-51
2020/02/07 16:42:09;;;;;;;2.07;1.86;;;;;;;20.26;37.51;101419.83;;;;-52
2020/02/07 16:49:02;;;;;;;2.33;1.93;;;;;;;20.29;37.67;101425.30;;;;-61
2020/02/07 16:56:12;;;;;;;2.61;2.05;;;;;;;20.30;37.60;101429.27;;;;-57
2020/02/07 16:58:56;;;;;;;2.09;1.90;;;;;;;20.31;37.46;101426.86;;;;-57
2020/02/07 17:02:13;;;;;;;2.31;2.00;;;;;;;20.31;37.50;101429.05;;;;-54
2020/02/07 17:05:10;;;;;;;3.12;1.99;;;;;;;20.33;37.56;101430.79;;;;-62
2020/02/07 17:08:03;;;;;;;2.01;1.82;;;;;;;20.34;37.77;101428.28;;;;-58
2020/02/07 17:10:55;;;;;;;2.73;2.01;;;;;;;20.35;37.84;101430.17;;;;-51
2020/02/07 17:25:07;;;;;;;2.18;1.99;;;;;;;20.38;37.68;101429.95;;;;-55
2020/02/07 17:28:08;;;;;;;2.12;1.86;;;;;;;20.37;37.48;101422.56;;;;-54
2020/02/07 17:31:03;;;;;;;2.19;1.89;;;;;;;20.38;37.78;101427.59;;;;-57
2020/02/07 17:36:58;;;;;;;2.11;1.91;;;;;;;20.39;37.53;101430.41;;;;-53
2020/02/07 17:40:12;;;;;;;2.14;1.94;;;;;;;20.40;37.59;101421.97;;;;-49
2020/02/07 17:43:09;;;;;;;2.13;1.91;;;;;;;20.40;37.64;101415.20;;;;-64
2020/02/07 17:46:02;;;;;;;2.39;2.00;;;;;;;20.41;37.52;101407.87;;;;-52
2020/02/07 17:49:06;;;;;;;2.19;1.97;;;;;;;20.43;37.75;101413.41;;;;-56
2020/02/07 17:51:57;;;;;;;2.31;1.94;;;;;;;20.44;37.92;101407.35;;;;-53
2020/02/07 17:55:01;;;;;;;2.29;2.04;;;;;;;20.44;37.77;101411.55;;;;-53
2020/02/07 18:03:55;;;;;;;2.22;2.02;;;;;;;20.44;37.79;101410.11;;;;-50
2020/02/07 18:11:55;;;;;;;1.96;1.86;;;;;;;20.45;37.70;101398.25;;;;-53
2020/02/07 18:15:01;;;;;;;2.13;1.93;;;;;;;20.43;37.55;101397.07;;;;-53
2020/02/07 18:18:11;;;;;;;2.12;1.90;;;;;;;20.41;37.46;101397.47;;;;-53
2020/02/07 18:20:55;;;;;;;2.09;1.90;;;;;;;20.40;37.44;101396.63;;;;-53
2020/02/07 18:28:01;;;;;;;10.63;8.78;;;;;;;19.47;32.04;101403.13;;;;-52
2020/02/07 18:31:03;;;;;;;12.11;9.57;;;;;;;19.01;31.69;101412.66;;;;-56
2020/02/07 18:33:58;;;;;;;13.45;10.35;;;;;;;18.65;31.33;101420.27;;;;-51
2020/02/07 18:36:55;;;;;;;11.95;9.75;;;;;;;18.88;32.54;101416.82;;;;-60
2020/02/07 18:40:12;;;;;;;11.99;7.87;;;;;;;19.12;33.47;101425.69;;;;-56
2020/02/07 18:42:57;;;;;;;9.52;7.05;;;;;;;19.28;34.13;101426.49;;;;-57
2020/02/07 18:46:06;;;;;;;9.28;6.17;;;;;;;19.40;34.64;101418.96;;;;-57
2020/02/07 18:48:59;;;;;;;9.53;5.42;;;;;;;19.48;34.82;101415.20;;;;-58
2020/02/07 18:55:17;;;;;;;7.74;4.89;;;;;;;19.60;35.09;101411.69;;;;-57
2020/02/07 18:58:04;;;;;;;6.21;4.41;;;;;;;19.63;35.13;101403.91;;;;-58
2020/02/07 19:01:05;;;;;;;6.39;4.26;;;;;;;19.66;35.21;101400.97;;;;-57
2020/02/07 19:04:12;;;;;;;7.37;4.39;;;;;;;19.69;35.32;101393.83;;;;-49
2020/02/07 19:20:06;;;;;;;5.39;3.41;;;;;;;19.78;36.21;101390.13;;;;-50
2020/02/07 19:23:14;;;;;;;4.13;3.53;;;;;;;19.80;36.30;101389.16;;;;-52
2020/02/07 19:25:58;;;;;;;4.31;3.47;;;;;;;19.80;36.41;101382.80;;;;-49
2020/02/07 19:29:11;;;;;;;3.83;3.32;;;;;;;19.81;36.43;101378.89;;;;-57
2020/02/07 19:38:39;;;;;;;4.74;3.21;;;;;;;19.83;36.49;101372.58;;;;-51
2020/02/07 19:41:56;;;;;;;4.05;3.29;;;;;;;19.85;36.54;101369.47;;;;-56
2020/02/07 19:45:30;;;;;;;3.52;3.17;;;;;;;19.86;36.65;101375.89;;;;-57
2020/02/07 19:50:54;;;;;;;4.51;3.11;;;;;;;19.86;36.79;101362.26;;;;-53
2020/02/07 19:55:08;;;;;;;4.25;3.09;;;;;;;19.86;36.79;101361.48;;;;-49
2020/02/07 19:58:02;;;;;;;4.11;3.19;;;;;;;19.87;36.91;101368.08;;;;-52
2020/02/07 20:00:56;;;;;;;4.25;3.13;;;;;;;19.86;36.85;101371.64;;;;-55
2020/02/07 20:08:56;;;;;;;3.63;3.07;;;;;;;19.90;36.97;101376.97;;;;-53
2020/02/07 20:11:56;;;;;;;3.19;2.88;;;;;;;19.91;36.92;101373.43;;;;-52
2020/02/07 20:15:00;;;;;;;3.21;2.76;;;;;;;19.90;36.96;101369.47;;;;-50
2020/02/07 20:18:07;;;;;;;3.31;3.01;;;;;;;19.89;36.92;101366.68;;;;-50
2020/02/07 20:24:55;;;;;;;3.75;3.01;;;;;;;19.88;36.97;101366.79;;;;-56
2020/02/07 20:32:04;;;;;;;3.56;2.83;;;;;;;19.86;37.02;101359.80;;;;-53
2020/02/07 20:35:28;;;;;;;3.97;3.01;;;;;;;19.85;36.98;101360.84;;;;-56